sensor_id;sensor_type;location;lat;lon;timestamp;pressure;altitude;pressure_sealevel;temperature;humidity
71559;BME280;59382;43.852;25.952;2022-10-16T00:01:20;102090.50;;;15.73;53.23
71559;BME280;59382;43.852;25.952;2022-10-16T00:03:46;102102.03;;;15.82;53.18
71559;BME280;59382;43.852;25.952;2022-10-16T00:06:13;102103.06;;;15.81;53.08
71559;BME280;59382;43.852;25.952;2022-10-16T00:08:39;102100.34;;;15.81;53.33
71559;BME280;59382;43.852;25.952;2022-10-16T00:13:46;102100.56;;;15.79;53.34
71559;BME280;59382;43.852;25.952;2022-10-16T00:16:12;102113.13;;;15.80;53.39
71559;BME280;59382;43.852;25.952;2022-10-16T00:18:38;102102.66;;;15.77;53.43
71559;BME280;59382;43.852;25.952;2022-10-16T00:21:11;102106.41;;;15.76;53.64
71559;BME280;59382;43.852;25.952;2022-10-16T00:23:37;102105.38;;;15.70;53.63
71559;BME280;59382;43.852;25.952;2022-10-16T00:26:08;102121.94;;;15.76;53.80
71559;BME280;59382;43.852;25.952;2022-10-16T00:28:35;102103.09;;;15.61;53.70
71559;BME280;59382;43.852;25.952;2022-10-16T00:31:05;102109.78;;;15.52;53.88
71559;BME280;59382;43.852;25.952;2022-10-16T00:33:31;102121.72;;;15.57;53.80
71559;BME280;59382;43.852;25.952;2022-10-16T00:35:58;102112.31;;;15.47;53.76
71559;BME280;59382;43.852;25.952;2022-10-16T00:38:24;102101.03;;;15.37;53.67
71559;BME280;59382;43.852;25.952;2022-10-16T00:40:50;102108.53;;;15.41;53.51
71559;BME280;59382;43.852;25.952;2022-10-16T00:43:41;102116.06;;;15.46;53.90
71559;BME280;59382;43.852;25.952;2022-10-16T00:48:39;102116.06;;;15.46;53.49
71559;BME280;59382;43.852;25.952;2022-10-16T00:51:05;102115.25;;;15.39;53.36
71559;BME280;59382;43.852;25.952;2022-10-16T00:53:31;102126.50;;;15.29;53.36
71559;BME280;59382;43.852;25.952;2022-10-16T00:55:57;102126.50;;;15.23;53.43
71559;BME280;59382;43.852;25.952;2022-10-16T00:58:23;102113.09;;;15.15;53.31
71559;BME280;59382;43.852;25.952;2022-10-16T01:00:48;102122.53;;;15.19;53.80
71559;BME280;59382;43.852;25.952;2022-10-16T01:03:30;102116.44;;;15.17;53.66
71559;BME280;59382;43.852;25.952;2022-10-16T01:06:32;102121.88;;;15.17;53.40
71559;BME280;59382;43.852;25.952;2022-10-16T01:09:37;102125.66;;;15.16;53.46
71559;BME280;59382;43.852;25.952;2022-10-16T01:12:15;102123.34;;;15.13;53.08
71559;BME280;59382;43.852;25.952;2022-10-16T01:14:53;102120.63;;;15.13;53.06
71559;BME280;59382;43.852;25.952;2022-10-16T01:20:27;102116.88;;;15.14;53.08
71559;BME280;59382;43.852;25.952;2022-10-16T01:28:34;102101.16;;;15.03;53.25
71559;BME280;59382;43.852;25.952;2022-10-16T01:31:02;102124.38;;;15.12;53.22
71559;BME280;59382;43.852;25.952;2022-10-16T01:33:34;102110.38;;;15.02;52.93
71559;BME280;59382;43.852;25.952;2022-10-16T01:36:24;102126.44;;;14.97;52.98
71559;BME280;59382;43.852;25.952;2022-10-16T01:38:54;102120.16;;;14.90;53.31
71559;BME280;59382;43.852;25.952;2022-10-16T01:41:26;102120.81;;;14.92;53.32
71559;BME280;59382;43.852;25.952;2022-10-16T01:44:02;102109.28;;;14.90;53.57
71559;BME280;59382;43.852;25.952;2022-10-16T01:46:31;102127.94;;;15.06;53.47
71559;BME280;59382;43.852;25.952;2022-10-16T01:48:59;102135.25;;;15.12;53.37
71559;BME280;59382;43.852;25.952;2022-10-16T01:51:26;102135.69;;;15.15;53.28
71559;BME280;59382;43.852;25.952;2022-10-16T01:53:55;102135.28;;;15.18;53.14
71559;BME280;59382;43.852;25.952;2022-10-16T01:56:24;102132.75;;;15.17;53.39
71559;BME280;59382;43.852;25.952;2022-10-16T01:59:12;102142.41;;;15.26;53.08
71559;BME280;59382;43.852;25.952;2022-10-16T02:01:40;102134.00;;;15.21;53.07
71559;BME280;59382;43.852;25.952;2022-10-16T02:04:24;102151.19;;;15.28;53.24
71559;BME280;59382;43.852;25.952;2022-10-16T02:06:53;102139.88;;;15.24;53.32
71559;BME280;59382;43.852;25.952;2022-10-16T02:09:19;102152.88;;;15.29;53.37
71559;BME280;59382;43.852;25.952;2022-10-16T02:11:44;102149.50;;;15.27;53.55
71559;BME280;59382;43.852;25.952;2022-10-16T02:14:10;102148.47;;;15.28;53.41
71559;BME280;59382;43.852;25.952;2022-10-16T02:16:37;102156.63;;;15.28;53.79
71559;BME280;59382;43.852;25.952;2022-10-16T02:19:04;102156.84;;;15.26;53.53
71559;BME280;59382;43.852;25.952;2022-10-16T02:21:43;102149.50;;;15.20;53.40
71559;BME280;59382;43.852;25.952;2022-10-16T02:24:33;102162.25;;;15.20;53.62
71559;BME280;59382;43.852;25.952;2022-10-16T02:27:23;102151.97;;;15.09;53.60
71559;BME280;59382;43.852;25.952;2022-10-16T02:29:55;102170.00;;;15.10;53.46
71559;BME280;59382;43.852;25.952;2022-10-16T02:32:28;102164.56;;;15.10;53.25
71559;BME280;59382;43.852;25.952;2022-10-16T02:34:56;102154.91;;;15.01;53.28
71559;BME280;59382;43.852;25.952;2022-10-16T02:37:24;102158.66;;;15.00;53.31
71559;BME280;59382;43.852;25.952;2022-10-16T02:39:50;102175.44;;;15.10;53.42
71559;BME280;59382;43.852;25.952;2022-10-16T02:42:17;102165.38;;;15.04;53.53
71559;BME280;59382;43.852;25.952;2022-10-16T02:44:43;102167.88;;;15.05;53.58
71559;BME280;59382;43.852;25.952;2022-10-16T02:47:08;102176.88;;;15.06;53.38
71559;BME280;59382;43.852;25.952;2022-10-16T02:49:34;102161.78;;;14.97;53.55
71559;BME280;59382;43.852;25.952;2022-10-16T02:51:59;102168.72;;;14.99;53.37
71559;BME280;59382;43.852;25.952;2022-10-16T02:54:25;102170.78;;;14.97;53.57
71559;BME280;59382;43.852;25.952;2022-10-16T02:56:50;102165.34;;;14.91;53.70
71559;BME280;59382;43.852;25.952;2022-10-16T02:59:16;102169.94;;;14.90;53.89
71559;BME280;59382;43.852;25.952;2022-10-16T03:01:41;102177.28;;;14.96;53.82
71559;BME280;59382;43.852;25.952;2022-10-16T03:04:08;102167.41;;;14.89;53.56
71559;BME280;59382;43.852;25.952;2022-10-16T03:06:34;102188.34;;;14.95;53.70
71559;BME280;59382;43.852;25.952;2022-10-16T03:08:59;102174.94;;;14.87;53.64
71559;BME280;59382;43.852;25.952;2022-10-16T03:11:25;102176.63;;;14.88;53.71
71559;BME280;59382;43.852;25.952;2022-10-16T03:13:51;102192.09;;;14.94;53.71
71559;BME280;59382;43.852;25.952;2022-10-16T03:16:17;102176.84;;;14.86;53.85
71559;BME280;59382;43.852;25.952;2022-10-16T03:18:42;102178.69;;;14.86;53.75
71559;BME280;59382;43.852;25.952;2022-10-16T03:21:08;102191.25;;;14.87;53.83
71559;BME280;59382;43.852;25.952;2022-10-16T03:23:33;102190.84;;;14.90;53.59
71559;BME280;59382;43.852;25.952;2022-10-16T03:25:59;102197.97;;;14.91;53.92
71559;BME280;59382;43.852;25.952;2022-10-16T03:28:24;102181.19;;;14.81;53.89
71559;BME280;59382;43.852;25.952;2022-10-16T03:30:50;102182.22;;;14.80;53.70
71559;BME280;59382;43.852;25.952;2022-10-16T03:33:15;102209.84;;;14.90;53.89
71559;BME280;59382;43.852;25.952;2022-10-16T03:35:41;102207.13;;;14.90;54.19
71559;BME280;59382;43.852;25.952;2022-10-16T03:38:06;102194.75;;;14.81;54.08
71559;BME280;59382;43.852;25.952;2022-10-16T03:40:32;102204.22;;;14.85;54.00
71559;BME280;59382;43.852;25.952;2022-10-16T03:42:58;102202.97;;;14.87;54.16
71559;BME280;59382;43.852;25.952;2022-10-16T03:45:24;102209.25;;;14.88;54.38
71559;BME280;59382;43.852;25.952;2022-10-16T03:47:50;102197.88;;;14.78;54.16
71559;BME280;59382;43.852;25.952;2022-10-16T03:50:15;102195.16;;;14.78;54.31
71559;BME280;59382;43.852;25.952;2022-10-16T03:52:41;102200.84;;;14.83;54.38
71559;BME280;59382;43.852;25.952;2022-10-16T03:55:07;102215.91;;;14.85;54.08
71559;BME280;59382;43.852;25.952;2022-10-16T03:57:32;102186.41;;;14.76;54.40
71559;BME280;59382;43.852;25.952;2022-10-16T03:59:58;102204.22;;;14.85;54.48
71559;BME280;59382;43.852;25.952;2022-10-16T04:02:23;102195.81;;;14.80;54.63
71559;BME280;59382;43.852;25.952;2022-10-16T04:04:49;102198.78;;;14.85;54.52
71559;BME280;59382;43.852;25.952;2022-10-16T04:07:14;102189.53;;;14.73;54.52
71559;BME280;59382;43.852;25.952;2022-10-16T04:09:40;102213.59;;;14.82;54.55
71559;BME280;59382;43.852;25.952;2022-10-16T04:12:05;102206.03;;;14.78;54.62
71559;BME280;59382;43.852;25.952;2022-10-16T04:14:31;102208.75;;;14.78;54.82
71559;BME280;59382;43.852;25.952;2022-10-16T04:16:56;102185.72;;;14.61;54.81
71559;BME280;59382;43.852;25.952;2022-10-16T04:19:22;102216.28;;;14.76;54.61
71559;BME280;59382;43.852;25.952;2022-10-16T04:21:47;102215.44;;;14.75;54.91
71559;BME280;59382;43.852;25.952;2022-10-16T04:24:13;102203.28;;;14.65;54.76
71559;BME280;59382;43.852;25.952;2022-10-16T04:26:38;102215.00;;;14.72;54.74
71559;BME280;59382;43.852;25.952;2022-10-16T04:29:04;102213.34;;;14.71;54.62
71559;BME280;59382;43.852;25.952;2022-10-16T04:31:29;102212.28;;;14.72;54.44
71559;BME280;59382;43.852;25.952;2022-10-16T04:33:55;102208.72;;;14.65;54.51
71559;BME280;59382;43.852;25.952;2022-10-16T04:36:21;102201.97;;;14.54;54.62
71559;BME280;59382;43.852;25.952;2022-10-16T04:38:46;102217.06;;;14.63;54.43
71559;BME280;59382;43.852;25.952;2022-10-16T04:41:12;102224.59;;;14.68;54.46
71559;BME280;59382;43.852;25.952;2022-10-16T04:43:37;102227.94;;;14.63;54.48
71559;BME280;59382;43.852;25.952;2022-10-16T04:46:03;102230.84;;;14.62;54.55
71559;BME280;59382;43.852;25.952;2022-10-16T04:48:30;102241.88;;;14.54;54.84
71559;BME280;59382;43.852;25.952;2022-10-16T04:50:56;102243.16;;;14.58;54.92
71559;BME280;59382;43.852;25.952;2022-10-16T04:53:21;102242.13;;;14.59;54.63
71559;BME280;59382;43.852;25.952;2022-10-16T04:55:47;102249.22;;;14.60;54.84
71559;BME280;59382;43.852;25.952;2022-10-16T04:58:13;102252.59;;;14.62;54.70
71559;BME280;59382;43.852;25.952;2022-10-16T05:00:38;102262.19;;;14.64;54.66
71559;BME280;59382;43.852;25.952;2022-10-16T05:03:04;102263.50;;;14.68;54.87
71559;BME280;59382;43.852;25.952;2022-10-16T05:05:33;102262.44;;;14.69;54.66
71559;BME280;59382;43.852;25.952;2022-10-16T05:07:59;102261.59;;;14.69;54.60
71559;BME280;59382;43.852;25.952;2022-10-16T05:10:24;102247.16;;;14.62;54.74
71559;BME280;59382;43.852;25.952;2022-10-16T05:12:50;102256.34;;;14.61;54.56
71559;BME280;59382;43.852;25.952;2022-10-16T05:15:17;102263.84;;;14.59;54.07
71559;BME280;59382;43.852;25.952;2022-10-16T05:17:42;102269.59;;;14.43;54.17
71559;BME280;59382;43.852;25.952;2022-10-16T05:20:08;102263.16;;;14.23;54.46
71559;BME280;59382;43.852;25.952;2022-10-16T05:22:36;102276.81;;;14.08;54.40
71559;BME280;59382;43.852;25.952;2022-10-16T05:25:01;102281.75;;;13.98;54.96
71559;BME280;59382;43.852;25.952;2022-10-16T05:27:27;102289.59;;;13.87;55.36
71559;BME280;59382;43.852;25.952;2022-10-16T05:29:52;102308.97;;;13.83;55.59
71559;BME280;59382;43.852;25.952;2022-10-16T05:32:18;102311.22;;;13.80;55.37
71559;BME280;59382;43.852;25.952;2022-10-16T05:34:44;102324.69;;;13.88;55.61
71559;BME280;59382;43.852;25.952;2022-10-16T05:37:10;102282.94;;;13.68;55.43
71559;BME280;59382;43.852;25.952;2022-10-16T05:39:37;102324.59;;;13.81;55.28
71559;BME280;59382;43.852;25.952;2022-10-16T05:42:03;102330.41;;;13.78;54.90
71559;BME280;59382;43.852;25.952;2022-10-16T05:44:29;102330.28;;;13.65;55.26
71559;BME280;59382;43.852;25.952;2022-10-16T05:46:54;102339.19;;;13.59;55.60
71559;BME280;59382;43.852;25.952;2022-10-16T05:49:20;102333.78;;;13.59;55.83
71559;BME280;59382;43.852;25.952;2022-10-16T05:51:45;102326.84;;;13.57;55.53
71559;BME280;59382;43.852;25.952;2022-10-16T05:54:11;102339.06;;;13.67;55.49
71559;BME280;59382;43.852;25.952;2022-10-16T05:56:37;102332.34;;;13.63;55.46
71559;BME280;59382;43.852;25.952;2022-10-16T05:59:03;102340.75;;;13.68;55.47
71559;BME280;59382;43.852;25.952;2022-10-16T06:01:29;102345.03;;;13.77;55.74
71559;BME280;59382;43.852;25.952;2022-10-16T06:03:56;102332.34;;;13.84;55.36
71559;BME280;59382;43.852;25.952;2022-10-16T06:06:24;102351.28;;;14.20;55.28
71559;BME280;59382;43.852;25.952;2022-10-16T06:08:52;102317.44;;;14.44;54.47
71559;BME280;59382;43.852;25.952;2022-10-16T06:11:23;102331.53;;;14.88;53.89
71559;BME280;59382;43.852;25.952;2022-10-16T06:13:55;102352.84;;;15.25;53.11
71559;BME280;59382;43.852;25.952;2022-10-16T06:16:26;102367.22;;;15.53;52.43
71559;BME280;59382;43.852;25.952;2022-10-16T06:18:52;102348.19;;;15.59;51.82
71559;BME280;59382;43.852;25.952;2022-10-16T06:21:23;102366.69;;;15.77;51.52
71559;BME280;59382;43.852;25.952;2022-10-16T06:23:53;102369.22;;;15.92;51.32
71559;BME280;59382;43.852;25.952;2022-10-16T06:26:21;102365.66;;;16.04;50.92
71559;BME280;59382;43.852;25.952;2022-10-16T06:28:48;102365.69;;;16.11;50.61
71559;BME280;59382;43.852;25.952;2022-10-16T06:31:15;102373.88;;;16.30;50.58
71559;BME280;59382;43.852;25.952;2022-10-16T06:33:40;102384.59;;;16.51;50.28
71559;BME280;59382;43.852;25.952;2022-10-16T06:36:09;102362.34;;;16.61;49.69
71559;BME280;59382;43.852;25.952;2022-10-16T06:38:35;102380.34;;;16.88;49.48
71559;BME280;59382;43.852;25.952;2022-10-16T06:41:01;102379.25;;;17.08;48.93
71559;BME280;59382;43.852;25.952;2022-10-16T06:43:28;102380.69;;;17.17;48.58
71559;BME280;59382;43.852;25.952;2022-10-16T06:45:58;102373.53;;;17.29;48.53
71559;BME280;59382;43.852;25.952;2022-10-16T06:48:25;102363.03;;;17.26;48.49
71559;BME280;59382;43.852;25.952;2022-10-16T06:51:00;102383.97;;;17.45;48.15
71559;BME280;59382;43.852;25.952;2022-10-16T06:53:27;102370.97;;;17.47;48.09
71559;BME280;59382;43.852;25.952;2022-10-16T06:55:54;102381.03;;;17.47;48.01
71559;BME280;59382;43.852;25.952;2022-10-16T06:58:19;102381.91;;;17.34;47.85
71559;BME280;59382;43.852;25.952;2022-10-16T07:00:47;102383.16;;;17.38;48.29
71559;BME280;59382;43.852;25.952;2022-10-16T07:03:13;102387.75;;;17.51;48.15
71559;BME280;59382;43.852;25.952;2022-10-16T07:05:42;102392.31;;;17.63;47.47
71559;BME280;59382;43.852;25.952;2022-10-16T07:08:08;102399.69;;;17.63;46.93
71559;BME280;59382;43.852;25.952;2022-10-16T07:10:34;102396.53;;;17.59;47.19
71559;BME280;59382;43.852;25.952;2022-10-16T07:13:00;102386.84;;;17.63;47.17
71559;BME280;59382;43.852;25.952;2022-10-16T07:15:26;102366.56;;;17.46;47.06
71559;BME280;59382;43.852;25.952;2022-10-16T07:17:51;102391.44;;;17.70;47.28
71559;BME280;59382;43.852;25.952;2022-10-16T07:20:17;102390.56;;;17.76;47.12
71559;BME280;59382;43.852;25.952;2022-10-16T07:22:43;102391.34;;;17.83;47.31
71559;BME280;59382;43.852;25.952;2022-10-16T07:25:08;102397.22;;;17.86;47.21
71559;BME280;59382;43.852;25.952;2022-10-16T07:27:36;102394.72;;;17.85;46.89
71559;BME280;59382;43.852;25.952;2022-10-16T07:30:02;102392.66;;;17.74;46.77
71559;BME280;59382;43.852;25.952;2022-10-16T07:32:28;102402.13;;;17.71;46.84
71559;BME280;59382;43.852;25.952;2022-10-16T07:34:54;102398.59;;;17.71;47.58
71559;BME280;59382;43.852;25.952;2022-10-16T07:37:21;102393.13;;;17.71;47.41
71559;BME280;59382;43.852;25.952;2022-10-16T07:39:46;102397.31;;;17.73;47.53
71559;BME280;59382;43.852;25.952;2022-10-16T07:42:13;102397.25;;;17.80;47.40
71559;BME280;59382;43.852;25.952;2022-10-16T07:44:39;102398.31;;;17.79;47.58
71559;BME280;59382;43.852;25.952;2022-10-16T07:47:05;102394.38;;;17.75;47.76
71559;BME280;59382;43.852;25.952;2022-10-16T07:49:31;102391.84;;;17.73;47.78
71559;BME280;59382;43.852;25.952;2022-10-16T07:51:56;102404.41;;;17.81;47.88
71559;BME280;59382;43.852;25.952;2022-10-16T07:54:22;102398.94;;;17.81;47.97
71559;BME280;59382;43.852;25.952;2022-10-16T07:56:47;102389.34;;;17.72;47.96
71559;BME280;59382;43.852;25.952;2022-10-16T07:59:13;102402.72;;;17.80;48.04
71559;BME280;59382;43.852;25.952;2022-10-16T08:01:39;102391.44;;;17.70;48.14
71559;BME280;59382;43.852;25.952;2022-10-16T08:04:05;102393.56;;;17.68;48.75
71559;BME280;59382;43.852;25.952;2022-10-16T08:06:36;102412.84;;;17.73;48.32
71559;BME280;59382;43.852;25.952;2022-10-16T08:09:05;102384.97;;;17.57;48.56
71559;BME280;59382;43.852;25.952;2022-10-16T08:11:32;102401.91;;;17.73;48.31
71559;BME280;59382;43.852;25.952;2022-10-16T08:13:57;102406.16;;;17.69;48.32
71559;BME280;59382;43.852;25.952;2022-10-16T08:16:23;102413.28;;;17.70;48.08
71559;BME280;59382;43.852;25.952;2022-10-16T08:18:48;102403.22;;;17.63;47.89
71559;BME280;59382;43.852;25.952;2022-10-16T08:21:18;102405.59;;;17.53;48.00
71559;BME280;59382;43.852;25.952;2022-10-16T08:23:45;102415.28;;;17.49;47.87
71559;BME280;59382;43.852;25.952;2022-10-16T08:26:11;102410.00;;;17.41;48.03
71559;BME280;59382;43.852;25.952;2022-10-16T08:28:37;102417.59;;;17.33;48.31
71559;BME280;59382;43.852;25.952;2022-10-16T08:31:08;102410.28;;;17.20;48.58
71559;BME280;59382;43.852;25.952;2022-10-16T08:33:34;102403.59;;;17.16;48.75
71559;BME280;59382;43.852;25.952;2022-10-16T08:36:03;102420.59;;;17.18;49.04
71559;BME280;59382;43.852;25.952;2022-10-16T08:38:29;102418.88;;;17.17;48.96
71559;BME280;59382;43.852;25.952;2022-10-16T08:49:10;102416.75;;;17.32;48.47
71559;BME280;59382;43.852;25.952;2022-10-16T08:51:38;102422.41;;;17.37;48.42
71559;BME280;59382;43.852;25.952;2022-10-16T08:56:55;102398.75;;;17.18;48.16
71559;BME280;59382;43.852;25.952;2022-10-16T08:59:21;102436.50;;;17.34;48.54
71559;BME280;59382;43.852;25.952;2022-10-16T09:01:50;102413.81;;;17.27;48.42
71559;BME280;59382;43.852;25.952;2022-10-16T09:07:41;102418.19;;;17.41;47.99
71559;BME280;59382;43.852;25.952;2022-10-16T09:15:58;102404.59;;;17.28;48.05
71559;BME280;59382;43.852;25.952;2022-10-16T09:19:19;102424.72;;;17.40;48.18
71559;BME280;59382;43.852;25.952;2022-10-16T09:21:23;102423.25;;;17.44;48.20
71559;BME280;59382;43.852;25.952;2022-10-16T09:23:50;102431.44;;;17.44;47.88
71559;BME280;59382;43.852;25.952;2022-10-16T09:26:17;102422.19;;;17.39;47.86
71559;BME280;59382;43.852;25.952;2022-10-16T09:28:44;102415.09;;;17.31;47.68
71559;BME280;59382;43.852;25.952;2022-10-16T09:31:19;102421.78;;;17.35;47.75
71559;BME280;59382;43.852;25.952;2022-10-16T09:33:50;102417.59;;;17.33;47.71
71559;BME280;59382;43.852;25.952;2022-10-16T09:36:18;102416.97;;;17.31;47.71
71559;BME280;59382;43.852;25.952;2022-10-16T09:38:44;102419.47;;;17.32;47.66
71559;BME280;59382;43.852;25.952;2022-10-16T09:41:21;102408.16;;;17.29;47.58
71559;BME280;59382;43.852;25.952;2022-10-16T09:43:59;102410.88;;;17.35;47.74
71559;BME280;59382;43.852;25.952;2022-10-16T09:46:33;102406.66;;;17.39;47.22
71559;BME280;59382;43.852;25.952;2022-10-16T09:49:01;102396.59;;;17.33;47.18
71559;BME280;59382;43.852;25.952;2022-10-16T09:51:30;102390.31;;;17.33;47.38
71559;BME280;59382;43.852;25.952;2022-10-16T09:56:30;102380.63;;;17.37;47.21
71559;BME280;59382;43.852;25.952;2022-10-16T09:59:00;102377.94;;;17.43;46.95
71559;BME280;59382;43.852;25.952;2022-10-16T10:01:35;102382.94;;;17.46;46.87
71559;BME280;59382;43.852;25.952;2022-10-16T10:04:02;102379.59;;;17.44;46.71
71559;BME280;59382;43.852;25.952;2022-10-16T10:06:33;102378.94;;;17.42;46.81
71559;BME280;59382;43.852;25.952;2022-10-16T10:11:56;102377.06;;;17.43;46.49
71559;BME280;59382;43.852;25.952;2022-10-16T10:14:34;102375.38;;;17.48;46.46
71559;BME280;59382;43.852;25.952;2022-10-16T10:19:48;102379.78;;;17.49;45.96
71559;BME280;59382;43.852;25.952;2022-10-16T10:28:16;102373.47;;;17.42;45.72
71559;BME280;59382;43.852;25.952;2022-10-16T10:36:00;102370.72;;;17.42;45.51
71559;BME280;59382;43.852;25.952;2022-10-16T10:38:37;102375.78;;;17.45;45.54
71559;BME280;59382;43.852;25.952;2022-10-16T10:46:39;102372.63;;;17.48;45.62
71559;BME280;59382;43.852;25.952;2022-10-16T10:57:02;102354.78;;;17.52;45.43
71559;BME280;59382;43.852;25.952;2022-10-16T10:59:41;102343.91;;;17.46;45.42
71559;BME280;59382;43.852;25.952;2022-10-16T11:07:33;102344.31;;;17.49;45.27
71559;BME280;59382;43.852;25.952;2022-10-16T11:10:09;102354.53;;;17.60;44.99
71559;BME280;59382;43.852;25.952;2022-10-16T11:15:58;102354.53;;;17.60;44.82
71559;BME280;59382;43.852;25.952;2022-10-16T11:18:46;102357.25;;;17.60;44.74
71559;BME280;59382;43.852;25.952;2022-10-16T11:21:14;102350.13;;;17.59;45.05
71559;BME280;59382;43.852;25.952;2022-10-16T11:24:04;102352.41;;;17.63;44.67
71559;BME280;59382;43.852;25.952;2022-10-16T11:26:39;102338.41;;;17.52;44.51
71559;BME280;59382;43.852;25.952;2022-10-16T11:29:15;102343.22;;;17.57;44.15
71559;BME280;59382;43.852;25.952;2022-10-16T11:31:50;102341.94;;;17.59;44.69
71559;BME280;59382;43.852;25.952;2022-10-16T11:37:06;102333.75;;;17.59;44.36
71559;BME280;59382;43.852;25.952;2022-10-16T11:39:35;102319.25;;;17.59;44.59
71559;BME280;59382;43.852;25.952;2022-10-16T11:42:22;102342.91;;;17.72;44.38
71559;BME280;59382;43.852;25.952;2022-10-16T11:45:02;102340.78;;;17.74;44.46
71559;BME280;59382;43.852;25.952;2022-10-16T11:47:41;102327.59;;;17.71;44.46
71559;BME280;59382;43.852;25.952;2022-10-16T11:55:43;102328.84;;;17.75;44.06
71559;BME280;59382;43.852;25.952;2022-10-16T12:03:28;102334.66;;;17.78;43.95
71559;BME280;59382;43.852;25.952;2022-10-16T12:08:35;102315.00;;;17.70;44.13
71559;BME280;59382;43.852;25.952;2022-10-16T12:14:58;102331.34;;;17.76;44.04
71559;BME280;59382;43.852;25.952;2022-10-16T12:16:57;102338.03;;;17.80;44.03
71559;BME280;59382;43.852;25.952;2022-10-16T12:19:26;102340.97;;;17.79;44.34
71559;BME280;59382;43.852;25.952;2022-10-16T12:21:56;102349.34;;;17.84;43.92
71559;BME280;59382;43.852;25.952;2022-10-16T12:26:53;102353.50;;;17.93;43.68
71559;BME280;59382;43.852;25.952;2022-10-16T12:29:40;102348.84;;;17.93;43.54
71559;BME280;59382;43.852;25.952;2022-10-16T12:34:51;102361.41;;;18.01;43.82
71559;BME280;59382;43.852;25.952;2022-10-16T12:37:20;102339.34;;;18.02;43.89
71559;BME280;59382;43.852;25.952;2022-10-16T12:39:48;102343.78;;;18.03;44.01
71559;BME280;59382;43.852;25.952;2022-10-16T12:44:53;102350.22;;;18.09;43.77
71559;BME280;59382;43.852;25.952;2022-10-16T12:49:51;102341.25;;;18.02;43.70
71559;BME280;59382;43.852;25.952;2022-10-16T12:54:59;102346.28;;;18.05;43.64
71559;BME280;59382;43.852;25.952;2022-10-16T13:06:20;102354.63;;;18.10;43.56
71559;BME280;59382;43.852;25.952;2022-10-16T13:28:12;102343.41;;;17.93;43.05
71559;BME280;59382;43.852;25.952;2022-10-16T13:33:59;102363.91;;;18.09;42.68
71559;BME280;59382;43.852;25.952;2022-10-16T13:36:06;102357.81;;;18.07;42.93
71559;BME280;59382;43.852;25.952;2022-10-16T13:38:34;102341.69;;;17.99;42.61
71559;BME280;59382;43.852;25.952;2022-10-16T13:41:05;102352.78;;;18.04;42.53
71559;BME280;59382;43.852;25.952;2022-10-16T13:43:45;102346.28;;;18.05;42.53
71559;BME280;59382;43.852;25.952;2022-10-16T13:46:17;102332.88;;;17.97;42.59
71559;BME280;59382;43.852;25.952;2022-10-16T13:48:43;102353.41;;;18.06;42.71
71559;BME280;59382;43.852;25.952;2022-10-16T13:51:14;102363.91;;;18.09;42.24
71559;BME280;59382;43.852;25.952;2022-10-16T13:53:40;102366.00;;;18.07;42.43
71559;BME280;59382;43.852;25.952;2022-10-16T13:56:20;102364.78;;;18.03;42.25
71559;BME280;59382;43.852;25.952;2022-10-16T13:59:04;102369.16;;;18.04;42.31
71559;BME280;59382;43.852;25.952;2022-10-16T14:01:33;102364.78;;;18.03;42.19
71559;BME280;59382;43.852;25.952;2022-10-16T14:04:04;102376.09;;;18.06;42.10
71559;BME280;59382;43.852;25.952;2022-10-16T14:06:31;102379.06;;;18.05;42.08
71559;BME280;59382;43.852;25.952;2022-10-16T14:09:08;102350.59;;;17.88;42.19
71559;BME280;59382;43.852;25.952;2022-10-16T14:11:43;102361.47;;;17.94;42.02
71559;BME280;59382;43.852;25.952;2022-10-16T14:14:11;102371.75;;;17.99;41.80
71559;BME280;59382;43.852;25.952;2022-10-16T14:16:40;102367.94;;;18.00;41.91
71559;BME280;59382;43.852;25.952;2022-10-16T14:19:15;102372.78;;;17.98;42.16
71559;BME280;59382;43.852;25.952;2022-10-16T14:21:43;102370.28;;;17.96;41.99
71559;BME280;59382;43.852;25.952;2022-10-16T14:24:13;102383.28;;;18.01;41.78
71559;BME280;59382;43.852;25.952;2022-10-16T14:26:46;102383.69;;;18.04;42.08
71559;BME280;59382;43.852;25.952;2022-10-16T14:29:24;102387.84;;;18.07;42.09
71559;BME280;59382;43.852;25.952;2022-10-16T14:32:01;102394.16;;;18.07;41.75
71559;BME280;59382;43.852;25.952;2022-10-16T14:34:34;102391.22;;;18.09;41.85
71559;BME280;59382;43.852;25.952;2022-10-16T14:37:08;102377.38;;;18.04;41.81
71559;BME280;59382;43.852;25.952;2022-10-16T14:39:39;102375.25;;;18.06;41.78
71559;BME280;59382;43.852;25.952;2022-10-16T14:42:14;102382.38;;;18.07;41.54
71559;BME280;59382;43.852;25.952;2022-10-16T14:44:42;102359.41;;;17.90;41.94
71559;BME280;59382;43.852;25.952;2022-10-16T14:47:12;102388.47;;;18.09;41.77
71559;BME280;59382;43.852;25.952;2022-10-16T14:49:38;102386.19;;;18.06;41.94
71559;BME280;59382;43.852;25.952;2022-10-16T14:52:08;102384.97;;;18.02;41.57
71559;BME280;59382;43.852;25.952;2022-10-16T14:54:35;102381.16;;;18.03;41.74
71559;BME280;59382;43.852;25.952;2022-10-16T14:57:00;102376.94;;;18.07;41.84
71559;BME280;59382;43.852;25.952;2022-10-16T14:59:35;102384.53;;;18.05;41.46
71559;BME280;59382;43.852;25.952;2022-10-16T15:02:30;102377.22;;;17.99;41.30
71559;BME280;59382;43.852;25.952;2022-10-16T15:04:56;102393.75;;;18.04;41.53
71559;BME280;59382;43.852;25.952;2022-10-16T15:07:22;102398.63;;;18.02;41.65
71559;BME280;59382;43.852;25.952;2022-10-16T15:09:49;102398.00;;;18.00;41.59